Time;durP1;ratioP1;P1;durP2;ratioP2;P2;SDS_P1;SDS_P2;PMS_P1;PMS_P2;Temp;Humidity;BMP_temperature;BMP_pressure;BME280_temperature;BME280_humidity;BME280_pressure;Samples;Min_cycle;Max_cycle;Signal;HPM_P1;HPM_P2
2023/02/04 00:01:38;;;;;;;40.10;7.05;;;6.80;99.90;;;;;;5003974;28;20072;-79
2023/02/04 00:04:04;;;;;;;50.60;8.45;;;6.80;99.90;;;;;;5002105;28;20050;-80
2023/02/04 00:06:29;;;;;;;42.33;7.53;;;6.70;99.90;;;;;;5000136;28;20038;-81
2023/02/04 00:08:55;;;;;;;42.42;7.20;;;6.80;99.90;;;;;;5017029;28;20050;-79
2023/02/04 00:11:20;;;;;;;35.72;6.80;;;6.80;99.90;;;;;;5001871;28;20125;-79
2023/02/04 00:13:46;;;;;;;35.00;6.22;;;6.80;99.90;;;;;;5000641;28;20475;-81
2023/02/04 00:16:12;;;;;;;50.17;8.85;;;6.80;99.90;;;;;;5002345;28;20157;-79
2023/02/04 00:18:37;;;;;;;44.22;6.93;;;6.80;99.90;;;;;;5003317;28;20137;-79
2023/02/04 00:21:03;;;;;;;36.40;7.03;;;6.70;99.90;;;;;;5000415;28;20511;-79
2023/02/04 00:23:29;;;;;;;34.63;6.85;;;6.80;99.90;;;;;;5002444;28;20067;-79
2023/02/04 00:25:54;;;;;;;44.50;7.32;;;6.80;99.90;;;;;;5000270;28;20046;-78
2023/02/04 00:28:20;;;;;;;39.13;6.15;;;6.80;99.90;;;;;;5003403;28;20050;-79
2023/02/04 00:30:46;;;;;;;40.70;6.47;;;6.80;99.90;;;;;;4998856;28;20037;-79
2023/02/04 00:33:12;;;;;;;38.63;6.40;;;6.70;99.90;;;;;;5002261;28;20069;-79
2023/02/04 00:35:37;;;;;;;48.53;8.20;;;6.70;99.90;;;;;;4999900;28;20072;-80
2023/02/04 00:38:03;;;;;;;41.95;7.40;;;6.70;99.90;;;;;;5002946;28;20119;-80
2023/02/04 00:40:29;;;;;;;44.97;6.20;;;6.80;99.90;;;;;;5001220;28;20507;-79
2023/02/04 00:42:54;;;;;;;38.08;6.80;;;6.70;99.90;;;;;;5016872;28;20046;-79
2023/02/04 00:45:20;;;;;;;47.15;8.57;;;6.70;99.90;;;;;;5000434;28;20050;-79
2023/02/04 00:47:46;;;;;;;48.85;8.50;;;6.70;99.90;;;;;;4990532;28;20060;-79
2023/02/04 00:50:11;;;;;;;47.92;8.40;;;6.70;99.90;;;;;;4999913;28;20061;-80
2023/02/04 00:52:37;;;;;;;40.97;6.45;;;6.70;99.90;;;;;;5017376;28;20294;-79
2023/02/04 00:55:03;;;;;;;52.38;7.40;;;6.70;99.90;;;;;;4998094;28;20092;-80
2023/02/04 00:57:28;;;;;;;47.65;7.25;;;6.80;99.90;;;;;;5000182;28;20048;-79
2023/02/04 00:59:54;;;;;;;38.22;6.18;;;6.80;99.90;;;;;;5000912;28;20046;-79
2023/02/04 01:02:20;;;;;;;41.58;7.60;;;6.70;99.90;;;;;;5002859;28;20045;-79
2023/02/04 01:04:45;;;;;;;42.63;7.05;;;6.70;99.90;;;;;;5000419;28;20763;-78
2023/02/04 01:07:11;;;;;;;39.85;6.82;;;6.70;99.90;;;;;;4999311;28;20038;-79
2023/02/04 01:09:36;;;;;;;56.78;7.47;;;6.70;99.90;;;;;;4998946;28;20046;-79
2023/02/04 01:12:02;;;;;;;44.28;6.80;;;6.70;99.90;;;;;;5000597;28;20603;-80
2023/02/04 01:14:28;;;;;;;46.42;8.48;;;6.70;99.90;;;;;;4998871;28;20038;-79
2023/02/04 01:16:53;;;;;;;38.40;7.00;;;6.70;99.90;;;;;;5001893;28;20099;-80
2023/02/04 01:19:19;;;;;;;43.00;7.00;;;6.70;99.90;;;;;;5001959;28;20067;-81
2023/02/04 01:21:45;;;;;;;44.08;6.90;;;6.70;99.90;;;;;;4998406;28;20125;-79
2023/02/04 01:24:11;;;;;;;46.10;7.05;;;6.80;99.90;;;;;;5001119;28;20526;-79
2023/02/04 01:26:36;;;;;;;44.22;6.88;;;6.70;99.90;;;;;;4997935;28;20041;-82
2023/02/04 01:29:02;;;;;;;46.42;7.38;;;6.80;99.90;;;;;;5002410;28;20041;-78
2023/02/04 01:31:30;;;;;;;44.78;6.80;;;6.70;99.90;;;;;;4998055;28;20073;-79
2023/02/04 01:33:56;;;;;;;45.35;7.22;;;6.80;99.90;;;;;;5001691;28;20050;-79
2023/02/04 01:36:21;;;;;;;46.53;7.07;;;6.80;99.90;;;;;;4997476;28;20054;-79
2023/02/04 01:38:48;;;;;;;44.13;6.75;;;6.70;99.90;;;;;;5000747;28;20042;-80
2023/02/04 01:41:14;;;;;;;43.40;8.02;;;6.80;99.90;;;;;;4999848;28;20038;-79
2023/02/04 01:43:40;;;;;;;52.03;7.30;;;6.80;99.90;;;;;;5000637;28;20053;-80
2023/02/04 01:46:06;;;;;;;46.80;7.57;;;6.70;99.90;;;;;;4998528;28;20033;-80
2023/02/04 01:48:32;;;;;;;44.00;7.80;;;6.70;99.90;;;;;;5002060;28;20045;-79
2023/02/04 01:51:04;;;;;;;44.08;6.90;;;6.80;99.90;;;;;;5005738;28;20030;-78
2023/02/04 01:53:31;;;;;;;40.90;7.63;;;6.70;99.90;;;;;;4997820;28;20092;-81
2023/02/04 01:55:57;;;;;;;51.22;8.15;;;6.70;99.90;;;;;;4999870;28;20042;-78
2023/02/04 01:58:22;;;;;;;54.80;8.63;;;6.80;99.90;;;;;;5000189;28;20038;-78
2023/02/04 02:00:48;;;;;;;45.60;7.45;;;6.70;99.90;;;;;;4995550;28;20096;-78
2023/02/04 02:03:14;;;;;;;40.28;6.75;;;6.80;99.90;;;;;;4981732;28;20128;-80
2023/02/04 02:05:43;;;;;;;46.75;8.90;;;6.80;99.90;;;;;;4984875;28;20143;-78
2023/02/04 02:08:09;;;;;;;40.58;5.95;;;6.80;99.90;;;;;;5001369;28;20108;-78
2023/02/04 02:10:37;;;;;;;47.72;7.40;;;6.80;99.90;;;;;;4999566;28;20038;-78
2023/02/04 02:13:04;;;;;;;46.00;8.50;;;6.90;99.90;;;;;;4999779;28;20066;-78
2023/02/04 02:15:30;;;;;;;49.20;6.25;;;6.90;99.90;;;;;;5032490;28;20044;-78
2023/02/04 02:17:56;;;;;;;49.47;7.57;;;6.90;99.90;;;;;;5001453;28;20050;-78
2023/02/04 02:20:23;;;;;;;48.80;7.22;;;6.90;99.90;;;;;;5000413;28;20057;-78
2023/02/04 02:23:15;;;;;;;45.40;7.97;;;7.00;99.90;;;;;;4996925;28;20100;-79
2023/02/04 02:25:41;;;;;;;37.83;7.20;;;7.00;99.90;;;;;;5002556;28;20050;-79
2023/02/04 02:28:13;;;;;;;40.17;7.30;;;6.90;99.90;;;;;;5003360;28;20038;-79
2023/02/04 02:30:40;;;;;;;48.20;7.28;;;7.00;99.90;;;;;;5001870;28;20078;-79
2023/02/04 02:33:06;;;;;;;35.55;6.88;;;7.00;99.90;;;;;;5016646;28;20627;-78
2023/02/04 02:35:32;;;;;;;29.95;5.32;;;7.00;99.90;;;;;;4996601;28;20044;-78
2023/02/04 02:37:58;;;;;;;43.22;8.38;;;6.90;99.90;;;;;;5000791;28;20480;-78
2023/02/04 02:40:24;;;;;;;42.35;6.63;;;6.90;99.90;;;;;;5000148;28;20038;-79
2023/02/04 02:42:51;;;;;;;44.78;7.30;;;7.00;99.90;;;;;;5001153;28;20540;-78
2023/02/04 02:45:28;;;;;;;38.05;7.28;;;6.90;99.90;;;;;;5001682;28;20085;-78
2023/02/04 02:47:57;;;;;;;42.53;6.10;;;7.00;99.90;;;;;;5002934;28;20547;-78
2023/02/04 02:50:26;;;;;;;44.50;7.50;;;7.00;99.90;;;;;;5019412;28;20070;-79
2023/02/04 02:52:52;;;;;;;40.72;7.70;;;6.90;99.90;;;;;;5004029;28;20065;-79
2023/02/04 02:55:20;;;;;;;41.35;8.18;;;6.90;99.90;;;;;;4988375;28;20034;-78
2023/02/04 02:57:47;;;;;;;47.63;7.55;;;6.90;99.90;;;;;;5001329;28;20056;-80
2023/02/04 03:00:14;;;;;;;50.63;8.05;;;6.90;99.90;;;;;;5001072;28;20096;-78
2023/02/04 03:02:40;;;;;;;41.30;6.97;;;6.90;99.90;;;;;;5002613;28;20513;-79
2023/02/04 03:05:06;;;;;;;37.70;5.75;;;6.90;99.90;;;;;;5001771;28;20092;-80
2023/02/04 03:07:32;;;;;;;41.90;6.95;;;6.80;99.90;;;;;;5001512;28;20054;-78
2023/02/04 03:09:57;;;;;;;41.67;7.25;;;6.80;99.90;;;;;;5002517;28;20045;-79
2023/02/04 03:12:23;;;;;;;36.15;6.25;;;6.80;99.90;;;;;;4986934;28;20417;-79
2023/02/04 03:14:49;;;;;;;34.05;6.68;;;6.80;99.90;;;;;;5001541;28;20490;-81
2023/02/04 03:17:14;;;;;;;35.20;6.10;;;6.80;99.90;;;;;;5003536;28;20136;-78
2023/02/04 03:19:40;;;;;;;41.90;6.60;;;6.80;99.90;;;;;;5001772;28;20060;-78
2023/02/04 03:22:07;;;;;;;39.28;6.53;;;6.80;99.90;;;;;;5003776;28;20498;-78
2023/02/04 03:24:33;;;;;;;49.90;8.23;;;6.90;99.90;;;;;;4998912;28;20519;-79
2023/02/04 03:26:59;;;;;;;35.08;6.85;;;6.80;99.90;;;;;;5002649;28;20065;-80
2023/02/04 03:29:25;;;;;;;33.45;5.95;;;6.80;99.90;;;;;;5002746;28;20044;-82
2023/02/04 03:31:51;;;;;;;38.60;6.60;;;6.70;99.90;;;;;;5005668;28;20727;-80
2023/02/04 03:34:16;;;;;;;45.13;6.57;;;6.80;99.90;;;;;;5002824;28;20069;-79
2023/02/04 03:36:42;;;;;;;53.97;7.75;;;6.80;99.90;;;;;;4998938;28;20044;-79
2023/02/04 03:39:07;;;;;;;40.38;7.28;;;6.80;99.90;;;;;;5000138;28;20096;-80
2023/02/04 03:41:33;;;;;;;49.75;7.53;;;6.80;99.90;;;;;;5002755;28;20050;-78
2023/02/04 03:43:58;;;;;;;35.65;6.57;;;6.80;99.90;;;;;;5000800;28;20133;-79
2023/02/04 03:46:24;;;;;;;34.95;7.55;;;6.80;99.90;;;;;;5000056;28;20061;-79
2023/02/04 03:48:50;;;;;;;36.38;6.78;;;6.70;99.90;;;;;;4999035;28;20168;-79
2023/02/04 03:51:15;;;;;;;48.22;7.05;;;6.80;99.90;;;;;;4998914;28;20046;-79
2023/02/04 03:53:41;;;;;;;44.88;6.32;;;6.80;99.90;;;;;;5002082;28;20050;-79
2023/02/04 03:56:06;;;;;;;37.30;6.55;;;6.70;99.90;;;;;;4998498;28;20061;-81
2023/02/04 03:58:32;;;;;;;41.90;7.65;;;6.70;99.90;;;;;;4999521;28;20034;-80
2023/02/04 04:00:58;;;;;;;42.35;6.22;;;6.80;99.90;;;;;;5001476;28;20497;-80
2023/02/04 04:03:23;;;;;;;52.78;7.72;;;6.80;99.90;;;;;;5002830;28;20906;-79
2023/02/04 04:05:49;;;;;;;29.70;5.63;;;6.80;99.90;;;;;;4999594;28;20042;-79
2023/02/04 04:08:14;;;;;;;43.92;7.00;;;6.80;99.90;;;;;;5001580;28;20117;-78
2023/02/04 04:10:40;;;;;;;44.65;6.28;;;6.80;99.90;;;;;;5002048;28;20078;-79
2023/02/04 04:13:05;;;;;;;49.95;8.75;;;6.80;99.90;;;;;;4999874;28;20038;-79
2023/02/04 04:15:31;;;;;;;46.50;7.80;;;6.80;99.90;;;;;;5001067;28;20034;-79
2023/02/04 04:17:57;;;;;;;45.03;6.82;;;6.90;99.90;;;;;;4999764;28;20050;-80
2023/02/04 04:20:24;;;;;;;44.28;7.43;;;6.80;99.90;;;;;;5002394;28;20045;-78
2023/02/04 04:22:50;;;;;;;50.72;7.80;;;6.80;99.90;;;;;;5017947;28;20050;-79
2023/02/04 04:25:16;;;;;;;50.53;6.82;;;6.80;99.90;;;;;;4990444;28;20138;-78
2023/02/04 04:27:42;;;;;;;38.03;6.22;;;6.80;99.90;;;;;;5000946;28;20602;-79
2023/02/04 04:30:08;;;;;;;54.50;8.05;;;6.80;99.90;;;;;;4991417;28;20045;-80
2023/02/04 04:32:33;;;;;;;44.05;8.25;;;6.80;99.90;;;;;;5001977;28;20417;-79
2023/02/04 04:34:59;;;;;;;34.17;5.40;;;6.80;99.90;;;;;;4999185;28;20100;-78
2023/02/04 04:37:24;;;;;;;50.30;8.00;;;6.80;99.90;;;;;;5000270;28;21918;-78
2023/02/04 04:39:50;;;;;;;45.10;7.15;;;6.90;99.90;;;;;;4998293;28;20049;-79
2023/02/04 04:42:15;;;;;;;43.35;7.72;;;6.80;99.90;;;;;;5002444;28;20049;-78
2023/02/04 04:44:41;;;;;;;48.80;7.70;;;6.80;99.90;;;;;;5001469;28;20058;-79
2023/02/04 04:47:06;;;;;;;47.08;7.18;;;6.80;99.90;;;;;;4998256;28;20045;-79
2023/02/04 04:49:32;;;;;;;48.72;7.15;;;6.90;99.90;;;;;;5000884;28;20053;-79
2023/02/04 04:51:58;;;;;;;46.50;6.93;;;6.80;99.90;;;;;;5000057;28;20042;-78
2023/02/04 04:54:23;;;;;;;42.92;6.82;;;6.90;99.90;;;;;;5001091;28;20042;-79
2023/02/04 04:56:49;;;;;;;39.95;7.05;;;6.90;99.90;;;;;;4998463;28;20046;-79
2023/02/04 04:59:14;;;;;;;40.50;6.80;;;6.90;99.90;;;;;;4999903;28;20034;-80
2023/02/04 05:01:40;;;;;;;32.08;5.50;;;6.90;99.90;;;;;;5000157;28;20120;-78
2023/02/04 05:04:06;;;;;;;41.25;7.00;;;6.90;99.90;;;;;;5001127;28;20124;-78
2023/02/04 05:06:32;;;;;;;40.35;6.18;;;6.80;99.90;;;;;;5000648;28;20045;-78
2023/02/04 05:08:57;;;;;;;48.72;7.13;;;6.90;99.90;;;;;;4979431;28;20076;-79
2023/02/04 05:11:23;;;;;;;42.85;7.47;;;6.90;99.90;;;;;;5000772;28;20057;-80
2023/02/04 05:13:48;;;;;;;38.78;6.88;;;6.90;99.90;;;;;;4999143;28;20054;-78
2023/02/04 05:16:15;;;;;;;42.28;6.80;;;6.80;99.90;;;;;;4989379;28;20033;-78
2023/02/04 05:18:40;;;;;;;40.00;6.97;;;6.80;99.90;;;;;;4989109;28;20041;-78
2023/02/04 05:21:07;;;;;;;40.83;5.45;;;6.80;99.90;;;;;;5002925;28;20416;-78
2023/02/04 05:23:32;;;;;;;41.03;8.40;;;6.80;99.90;;;;;;5000049;28;20057;-78
2023/02/04 05:25:58;;;;;;;46.75;9.60;;;6.80;99.90;;;;;;5002000;28;20046;-78
2023/02/04 05:28:24;;;;;;;37.42;6.15;;;6.80;99.90;;;;;;4999702;28;20037;-79
2023/02/04 05:30:49;;;;;;;41.28;7.03;;;6.80;99.90;;;;;;5003447;28;20112;-80
2023/02/04 05:33:15;;;;;;;32.13;4.93;;;6.70;99.90;;;;;;5000983;28;20056;-79
2023/02/04 05:35:40;;;;;;;55.90;8.13;;;6.70;99.90;;;;;;4998974;28;20566;-78
2023/02/04 05:38:06;;;;;;;36.03;7.25;;;6.70;99.90;;;;;;4999165;28;20046;-79
2023/02/04 05:40:31;;;;;;;41.72;6.03;;;6.70;99.90;;;;;;5001998;28;20041;-80
2023/02/04 05:42:57;;;;;;;31.83;4.93;;;6.60;99.90;;;;;;4998782;28;20076;-78
2023/02/04 05:45:22;;;;;;;37.45;5.88;;;6.60;99.90;;;;;;4996461;28;20070;-78
2023/02/04 05:47:48;;;;;;;36.20;5.47;;;6.60;99.90;;;;;;5000733;28;20120;-79
2023/02/04 05:50:14;;;;;;;39.38;5.97;;;6.60;99.90;;;;;;5002503;28;20072;-79
2023/02/04 05:52:40;;;;;;;33.72;5.50;;;6.60;99.90;;;;;;4999607;28;20089;-79
2023/02/04 05:55:06;;;;;;;39.85;6.63;;;6.60;99.90;;;;;;4999294;28;20030;-82
2023/02/04 05:57:32;;;;;;;35.13;7.03;;;6.60;99.90;;;;;;5000840;28;20073;-79
2023/02/04 05:59:57;;;;;;;33.25;6.32;;;6.60;99.90;;;;;;4997984;28;20077;-79
2023/02/04 06:02:23;;;;;;;46.22;5.88;;;6.60;99.90;;;;;;5001572;28;20041;-79
2023/02/04 06:04:49;;;;;;;36.03;6.43;;;6.60;99.90;;;;;;4999033;28;20054;-81
2023/02/04 06:07:14;;;;;;;34.22;6.30;;;6.50;99.90;;;;;;5000845;28;20042;-79
2023/02/04 06:09:40;;;;;;;36.70;7.28;;;6.50;99.90;;;;;;4998623;28;20034;-79
2023/02/04 06:12:05;;;;;;;41.05;8.02;;;6.60;99.90;;;;;;5000499;28;20038;-81
2023/02/04 06:14:31;;;;;;;36.38;6.55;;;6.60;99.90;;;;;;5013281;28;20386;-79
2023/02/04 06:16:58;;;;;;;41.65;6.03;;;6.60;99.90;;;;;;4999099;28;20037;-79
2023/02/04 06:19:24;;;;;;;36.50;6.25;;;6.50;99.90;;;;;;5005578;28;20072;-81
2023/02/04 06:21:50;;;;;;;35.92;6.32;;;6.60;99.90;;;;;;5003888;28;20428;-79
2023/02/04 06:24:15;;;;;;;35.05;6.53;;;6.50;99.90;;;;;;5008874;28;20042;-79
2023/02/04 06:26:41;;;;;;;30.90;5.32;;;6.50;99.90;;;;;;5004875;28;20049;-79
2023/02/04 06:29:07;;;;;;;32.40;5.32;;;6.50;99.90;;;;;;5001617;28;20042;-79
2023/02/04 06:31:32;;;;;;;37.80;6.32;;;6.50;99.90;;;;;;5004314;28;20080;-78
2023/02/04 06:33:58;;;;;;;37.65;6.05;;;6.40;99.90;;;;;;5002484;28;20615;-79
2023/02/04 06:36:23;;;;;;;50.17;5.78;;;6.40;99.90;;;;;;5002625;28;20132;-79
2023/02/04 06:38:49;;;;;;;39.00;5.93;;;6.40;99.90;;;;;;5005117;28;20278;-78
2023/02/04 06:41:15;;;;;;;42.47;7.47;;;6.40;99.90;;;;;;5003700;28;20046;-79
2023/02/04 06:43:40;;;;;;;36.90;5.75;;;6.40;99.90;;;;;;5001939;28;20046;-80
2023/02/04 06:46:06;;;;;;;38.03;5.38;;;6.30;99.90;;;;;;5004694;28;20075;-79
2023/02/04 06:48:31;;;;;;;35.10;5.57;;;6.30;99.90;;;;;;5003996;28;20503;-79
2023/02/04 06:50:57;;;;;;;33.45;5.95;;;6.30;99.90;;;;;;5002596;28;20045;-78
2023/02/04 06:53:23;;;;;;;35.28;5.40;;;6.30;99.90;;;;;;5003422;28;20046;-79
2023/02/04 06:55:48;;;;;;;44.15;7.30;;;6.30;99.90;;;;;;4991260;28;20148;-80
2023/02/04 06:58:14;;;;;;;39.88;6.25;;;6.30;99.90;;;;;;5003517;28;20078;-79
2023/02/04 07:00:39;;;;;;;36.38;6.35;;;6.30;99.90;;;;;;5001920;28;20096;-79
2023/02/04 07:03:06;;;;;;;34.17;6.45;;;6.10;99.90;;;;;;5004887;28;20117;-79
2023/02/04 07:05:32;;;;;;;42.55;6.93;;;6.10;99.90;;;;;;4997652;28;20065;-79
2023/02/04 07:07:58;;;;;;;37.88;6.05;;;6.00;99.90;;;;;;5001242;28;20049;-79
2023/02/04 07:10:23;;;;;;;34.70;4.97;;;6.00;99.90;;;;;;4998836;28;20026;-79
2023/02/04 07:12:49;;;;;;;37.38;5.43;;;5.90;99.90;;;;;;5000198;28;20046;-79
2023/02/04 07:15:15;;;;;;;40.53;5.82;;;5.90;99.90;;;;;;4999378;28;20396;-79
2023/02/04 07:17:41;;;;;;;32.25;5.22;;;5.90;99.90;;;;;;5001019;28;20099;-80
2023/02/04 07:20:07;;;;;;;37.05;5.88;;;5.90;99.90;;;;;;4983428;28;20051;-80
2023/02/04 07:22:32;;;;;;;34.40;4.60;;;5.80;99.90;;;;;;5017555;28;20477;-79
2023/02/04 07:24:58;;;;;;;43.28;5.63;;;5.80;99.90;;;;;;4998967;28;20092;-80
2023/02/04 07:27:23;;;;;;;36.20;4.80;;;5.70;99.90;;;;;;5000337;28;20037;-79
2023/02/04 07:29:49;;;;;;;31.27;5.57;;;5.70;99.90;;;;;;5016155;28;20053;-79
2023/02/04 07:32:15;;;;;;;34.35;4.57;;;5.80;99.90;;;;;;4999572;28;20132;-80
2023/02/04 07:34:40;;;;;;;29.30;4.80;;;5.70;99.90;;;;;;4987320;28;20124;-79
2023/02/04 07:37:06;;;;;;;30.13;4.75;;;5.70;99.90;;;;;;5000621;28;20999;-80
2023/02/04 07:39:31;;;;;;;32.40;5.50;;;6.20;99.90;;;;;;5000986;28;20044;-80
2023/02/04 07:41:57;;;;;;;37.08;5.50;;;5.70;99.90;;;;;;5001038;28;20034;-79
2023/02/04 07:44:22;;;;;;;38.33;4.30;;;5.80;99.90;;;;;;5001384;28;20046;-79
2023/02/04 07:46:48;;;;;;;30.05;4.63;;;5.80;99.90;;;;;;5002522;28;20045;-81
2023/02/04 07:49:40;;;;;;;30.83;5.13;;;5.80;99.90;;;;;;4993361;28;20042;-81
2023/02/04 07:52:07;;;;;;;28.83;3.67;;;5.90;99.90;;;;;;5013377;28;20048;-81
2023/02/04 07:54:32;;;;;;;31.02;3.72;;;5.90;99.90;;;;;;5005460;28;20101;-82
2023/02/04 07:56:58;;;;;;;26.65;4.38;;;5.90;99.90;;;;;;5003721;28;20034;-81
2023/02/04 07:59:23;;;;;;;35.05;4.70;;;5.90;99.90;;;;;;4989789;28;20050;-82
2023/02/04 08:01:49;;;;;;;45.10;5.93;;;5.90;99.90;;;;;;5003491;28;20073;-81
2023/02/04 08:04:15;;;;;;;26.67;3.90;;;5.90;99.90;;;;;;5014348;28;20037;-82
2023/02/04 08:06:49;;;;;;;31.20;5.35;;;5.90;99.90;;;;;;4998760;28;20038;-82
2023/02/04 08:09:14;;;;;;;24.92;4.40;;;6.80;99.90;;;;;;5000571;28;20548;-81
2023/02/04 08:11:40;;;;;;;29.40;6.40;;;5.90;99.90;;;;;;5012449;28;20073;-81
2023/02/04 08:14:05;;;;;;;34.95;5.68;;;5.90;99.90;;;;;;5000277;28;20041;-82
2023/02/04 08:16:31;;;;;;;31.30;6.18;;;5.90;99.90;;;;;;5021408;28;20043;-82
2023/02/04 08:18:57;;;;;;;27.30;6.38;;;5.90;99.90;;;;;;5019095;28;20061;-82
2023/02/04 08:21:22;;;;;;;19.40;3.65;;;6.00;99.90;;;;;;5018542;28;20358;-81
2023/02/04 08:23:48;;;;;;;14.75;3.08;;;6.00;99.90;;;;;;5025525;28;20037;-82
2023/02/04 08:26:14;;;;;;;14.43;2.78;;;6.00;99.90;;;;;;4992760;28;20052;-82
2023/02/04 08:28:39;;;;;;;14.30;2.67;;;6.00;99.90;;;;;;4998683;28;20882;-82
2023/02/04 08:31:05;;;;;;;16.63;2.42;;;6.00;99.90;;;;;;4992913;28;20033;-81
2023/02/04 08:33:31;;;;;;;18.33;3.25;;;6.00;99.90;;;;;;4985854;28;20030;-82
2023/02/04 08:35:57;;;;;;;16.35;2.97;;;6.00;99.90;;;;;;4992430;28;20068;-82
2023/02/04 08:38:22;;;;;;;13.68;2.17;;;6.00;99.90;;;;;;4992555;28;20037;-81
2023/02/04 08:40:48;;;;;;;16.63;2.25;;;6.00;99.90;;;;;;5008120;28;20042;-82
2023/02/04 08:43:13;;;;;;;13.27;2.65;;;6.10;99.90;;;;;;4993360;28;20095;-81
2023/02/04 08:45:39;;;;;;;14.95;2.53;;;6.00;99.90;;;;;;4992764;28;20046;-81
2023/02/04 08:48:06;;;;;;;14.20;2.60;;;6.10;99.90;;;;;;5005815;28;20049;-80
2023/02/04 08:50:32;;;;;;;14.27;1.75;;;6.10;99.90;;;;;;5008303;28;20105;-81
2023/02/04 08:52:57;;;;;;;19.92;3.30;;;6.10;99.90;;;;;;5007760;28;20076;-81
2023/02/04 08:55:23;;;;;;;11.55;2.28;;;6.10;99.90;;;;;;5006304;28;20041;-81
2023/02/04 08:57:49;;;;;;;15.30;2.70;;;6.10;99.90;;;;;;4997420;28;20153;-81
2023/02/04 09:00:15;;;;;;;14.75;2.15;;;6.10;99.90;;;;;;5027618;28;20034;-81
2023/02/04 09:02:40;;;;;;;14.20;2.60;;;6.10;99.90;;;;;;5006105;28;20050;-81
2023/02/04 09:05:06;;;;;;;15.73;2.30;;;6.10;99.90;;;;;;4991739;28;20044;-81
2023/02/04 09:07:32;;;;;;;13.10;1.98;;;6.20;99.90;;;;;;4992311;28;20068;-81
2023/02/04 09:09:57;;;;;;;15.35;2.25;;;6.20;99.90;;;;;;4992961;28;20049;-81
2023/02/04 09:12:23;;;;;;;14.35;1.92;;;6.20;99.90;;;;;;4986600;28;20061;-81
2023/02/04 09:14:48;;;;;;;12.98;1.83;;;6.20;99.90;;;;;;4986536;28;20037;-80
2023/02/04 09:17:16;;;;;;;11.10;2.17;;;6.20;99.90;;;;;;4992280;28;20075;-82
2023/02/04 09:19:41;;;;;;;12.63;1.98;;;6.20;99.90;;;;;;5001550;28;20053;-82
2023/02/04 09:22:07;;;;;;;18.92;2.40;;;6.20;99.90;;;;;;5015877;28;20169;-82
2023/02/04 09:24:32;;;;;;;13.50;1.67;;;6.20;99.90;;;;;;4991526;28;20067;-81
2023/02/04 09:26:58;;;;;;;10.82;1.88;;;6.20;99.90;;;;;;5003753;28;20068;-79
2023/02/04 09:29:24;;;;;;;12.48;2.17;;;6.20;99.90;;;;;;4988728;28;20172;-80
2023/02/04 09:31:51;;;;;;;19.02;2.83;;;6.30;99.90;;;;;;5004073;28;20046;-81
2023/02/04 09:34:16;;;;;;;14.52;1.60;;;6.20;99.90;;;;;;4996376;28;20048;-81
2023/02/04 09:36:42;;;;;;;17.77;2.83;;;6.30;99.90;;;;;;5012371;28;20046;-81
2023/02/04 09:39:11;;;;;;;20.25;2.90;;;6.30;99.90;;;;;;5012431;28;20081;-81
2023/02/04 09:41:40;;;;;;;15.95;3.03;;;6.20;99.90;;;;;;4989118;28;20048;-81
2023/02/04 09:44:14;;;;;;;15.25;2.10;;;6.20;99.90;;;;;;5017753;28;20109;-81
2023/02/04 09:46:47;;;;;;;15.38;2.25;;;6.20;99.90;;;;;;5008569;28;20393;-81
2023/02/04 09:49:13;;;;;;;10.55;2.22;;;6.20;99.90;;;;;;5010890;28;20113;-81
2023/02/04 09:51:38;;;;;;;13.32;2.70;;;6.30;99.90;;;;;;4994600;28;20116;-81
2023/02/04 09:54:19;;;;;;;12.20;2.40;;;6.40;99.90;;;;;;4994596;28;20622;-81
2023/02/04 09:56:47;;;;;;;13.88;2.10;;;6.40;99.90;;;;;;5006050;28;20560;-81
2023/02/04 09:59:23;;;;;;;15.60;1.70;;;6.40;99.90;;;;;;5034433;28;20194;-81
2023/02/04 10:02:27;;;;;;;10.93;2.85;;;6.40;99.90;;;;;;5003579;28;20417;-82
2023/02/04 10:04:57;;;;;;;11.20;1.48;;;6.50;99.90;;;;;;4985391;28;21176;-82
2023/02/04 10:08:25;;;;;;;10.00;2.30;;;6.50;99.90;;;;;;4992848;28;20050;-82
2023/02/04 10:11:03;;;;;;;16.52;2.13;;;6.50;99.90;;;;;;5020821;28;20042;-82
2023/02/04 10:13:44;;;;;;;10.95;2.17;;;6.60;99.90;;;;;;5001886;28;20082;-81
2023/02/04 10:16:16;;;;;;;15.50;2.13;;;6.70;99.90;;;;;;5002888;28;20069;-81
2023/02/04 10:18:42;;;;;;;17.25;2.35;;;6.80;99.90;;;;;;5001078;28;20042;-81
2023/02/04 10:21:13;;;;;;;17.42;3.28;;;6.80;99.90;;;;;;5004475;28;20055;-81
2023/02/04 10:23:40;;;;;;;10.43;1.83;;;6.90;99.90;;;;;;5023844;28;20090;-82
2023/02/04 10:26:12;;;;;;;11.25;2.65;;;6.90;99.90;;;;;;5004792;28;20505;-81
2023/02/04 10:28:39;;;;;;;10.32;2.10;;;6.90;99.90;;;;;;5014510;28;20124;-81
2023/02/04 10:31:07;;;;;;;10.00;1.80;;;7.60;99.90;;;;;;5006002;28;20042;-80
2023/02/04 10:33:35;;;;;;;15.43;2.25;;;6.90;99.90;;;;;;5008040;28;20089;-82
2023/02/04 10:36:03;;;;;;;9.55;1.60;;;7.00;99.90;;;;;;4999272;28;20115;-84
2023/02/04 10:38:29;;;;;;;12.50;2.25;;;6.90;99.90;;;;;;4995685;28;20034;-81
2023/02/04 10:41:02;;;;;;;10.73;2.35;;;7.00;99.90;;;;;;5002757;28;20092;-82
2023/02/04 10:43:28;;;;;;;7.25;1.90;;;7.00;99.90;;;;;;4998928;28;20046;-83
2023/02/04 10:46:03;;;;;;;11.60;1.48;;;7.00;99.90;;;;;;4999455;28;20317;-82
2023/02/04 10:48:38;;;;;;;10.50;2.43;;;7.10;99.90;;;;;;4991384;28;20520;-84
2023/02/04 10:51:04;;;;;;;8.32;1.67;;;7.20;99.90;;;;;;4995858;28;20072;-83
2023/02/04 10:56:20;;;;;;;7.20;2.10;;;7.30;99.90;;;;;;5000814;28;20049;-82
2023/02/04 10:58:46;;;;;;;9.55;1.60;;;7.30;99.90;;;;;;5022941;28;20038;-81
2023/02/04 11:01:13;;;;;;;9.20;2.33;;;7.30;99.90;;;;;;4988591;28;20038;-81
2023/02/04 11:03:40;;;;;;;12.93;1.20;;;7.40;99.90;;;;;;4991348;28;20053;-82
2023/02/04 11:06:23;;;;;;;10.95;2.65;;;7.50;99.90;;;;;;4987558;28;20129;-82
2023/02/04 11:08:52;;;;;;;12.27;1.55;;;7.60;99.90;;;;;;4995881;28;20052;-81
2023/02/04 11:11:23;;;;;;;8.30;1.27;;;7.70;99.90;;;;;;5004973;28;20428;-83
2023/02/04 11:13:49;;;;;;;10.38;1.10;;;7.90;99.90;;;;;;4990012;28;20061;-81
2023/02/04 11:16:17;;;;;;;5.35;1.45;;;8.10;99.90;;;;;;5010300;28;20485;-83
2023/02/04 11:29:50;;;;;;;14.55;1.23;;;9.10;99.90;;;;;;5008605;28;20060;-83
2023/02/04 11:32:34;;;;;;;4.57;0.90;;;9.40;99.90;;;;;;5019672;28;20030;-84
2023/02/04 11:35:11;;;;;;;5.78;1.00;;;9.60;99.90;;;;;;5039131;28;20099;-82
2023/02/04 11:37:42;;;;;;;6.68;1.00;;;9.70;99.90;;;;;;4989446;28;20528;-83
2023/02/04 11:40:33;;;;;;;8.70;1.50;;;9.90;99.90;;;;;;5002123;28;20042;-80
2023/02/04 11:43:12;;;;;;;7.15;1.55;;;9.80;99.90;;;;;;5028882;28;20125;-79
2023/02/04 11:45:39;;;;;;;8.13;1.65;;;9.60;99.90;;;;;;4997376;28;20140;-79
2023/02/04 11:48:17;;;;;;;5.93;1.58;;;9.50;99.90;;;;;;4999984;28;20034;-79
2023/02/04 11:51:01;;;;;;;12.90;1.30;;;9.50;99.90;;;;;;4979390;28;20030;-80
2023/02/04 11:53:31;;;;;;;4.43;1.10;;;9.30;99.90;;;;;;4981210;28;20053;-82
2023/02/04 11:55:57;;;;;;;6.88;1.20;;;9.20;99.90;;;;;;4994373;28;20045;-82
2023/02/04 11:58:24;;;;;;;6.70;1.33;;;9.40;99.90;;;;;;4979327;28;20037;-82
2023/02/04 12:00:51;;;;;;;8.40;1.48;;;9.50;99.90;;;;;;4994742;28;20606;-82
2023/02/04 12:03:24;;;;;;;5.75;1.65;;;9.90;99.90;;;;;;4994851;28;20512;-81
2023/02/04 12:05:50;;;;;;;9.23;1.88;;;9.40;99.90;;;;;;4973326;28;20099;-81
2023/02/04 12:08:22;;;;;;;13.32;1.80;;;9.60;99.90;;;;;;5007639;28;20042;-81
2023/02/04 12:10:59;;;;;;;7.32;1.58;;;9.80;99.90;;;;;;4991496;28;20152;-81
2023/02/04 12:13:25;;;;;;;12.75;3.42;;;9.80;99.90;;;;;;5010793;28;20493;-81
2023/02/04 12:16:08;;;;;;;6.05;1.52;;;9.60;99.90;;;;;;4978881;28;20046;-81
2023/02/04 12:18:34;;;;;;;6.63;1.55;;;9.70;99.90;;;;;;4996095;28;20134;-82
2023/02/04 12:21:01;;;;;;;9.85;1.27;;;9.90;99.90;;;;;;5008019;28;20492;-82
2023/02/04 12:23:28;;;;;;;11.82;1.05;;;9.90;99.90;;;;;;4977633;28;20133;-82
2023/02/04 12:25:54;;;;;;;10.18;1.45;;;10.00;99.90;;;;;;4991960;28;20038;-82
2023/02/04 12:28:20;;;;;;;8.20;1.30;;;10.00;99.90;;;;;;4981144;28;20080;-82
2023/02/04 12:30:46;;;;;;;6.05;0.75;;;9.80;99.90;;;;;;4994254;28;20038;-81
2023/02/04 12:33:11;;;;;;;8.75;1.60;;;9.90;99.90;;;;;;4987591;28;21627;-81
2023/02/04 12:35:37;;;;;;;8.80;1.73;;;10.10;99.90;;;;;;4992642;28;20042;-82
2023/02/04 12:38:03;;;;;;;5.97;1.67;;;10.10;99.90;;;;;;4994073;28;20049;-82
2023/02/04 12:40:29;;;;;;;8.48;1.05;;;10.30;99.90;;;;;;4971769;28;20046;-83
2023/02/04 12:42:55;;;;;;;8.35;0.93;;;10.30;99.90;;;;;;4976929;28;20042;-81
2023/02/04 12:45:20;;;;;;;7.82;1.50;;;9.90;99.90;;;;;;4978557;28;21806;-81
2023/02/04 12:47:46;;;;;;;5.55;1.02;;;9.90;99.90;;;;;;4994825;28;20042;-81
2023/02/04 12:50:21;;;;;;;5.07;1.70;;;9.90;99.90;;;;;;4977971;28;20033;-82
2023/02/04 12:52:53;;;;;;;3.85;0.88;;;9.90;99.90;;;;;;4996783;28;20116;-82
2023/02/04 12:55:20;;;;;;;5.82;1.33;;;9.50;99.90;;;;;;4976885;28;20050;-83
2023/02/04 12:57:45;;;;;;;6.40;1.17;;;9.30;99.90;;;;;;4998453;28;20600;-82
2023/02/04 13:00:13;;;;;;;8.88;2.25;;;8.90;99.90;;;;;;4986331;28;20041;-82
2023/02/04 13:02:38;;;;;;;4.93;0.88;;;8.60;99.90;;;;;;4982526;28;20073;-82